Hauptseite
METAR-TAF:

METAR-TAF

Flughäfen :

Middle Wallop Airfield

Middle Wallop, England

Breite: 51-09N, Länge: 001-34W, Höhe: 91 m

Beobachtung

Neuester Wetterbericht von vor 42 Minuten, um 12:50 UTC
Wind 5 kt aus West/Südwest
Temperatur 21°C
Luftfeuchtigkeit 40%
Luftdruck 1015 hPa
Sichtweite 10 km oder mehr
keine Wolken unter 1500 m und keine Kumulonimbus oder Gewitterwolken

METAR: EGVP 231250Z 25005KT CAVOK 21/07 Q1015 BLU NOSIG

Zeit: 14:32 (13:32 UTC)

Prognose

Neuester Wetterbericht von vor 3 Stunden und 13 Minuten, um 10:19 UTC
Gültige Prognose vom 23 um 12 UTC bis 23 um 21 UTC
Wind 7 kt aus Süd/Südwest
Sichtweite 10 km oder mehr
keine Wolken unter 1500 m und keine Kumulonimbus oder Gewitterwolken

TAF: EGVP 231019Z 2312/2321 21007KT CAVOK

Wetterbeobachtungen und Prognosen von mehr als 4000 Flughäfen (METAR und TAF Bericht).

Die verfügbaren Stationen werden durch gelbe und rote Markierungen auf der Karte dargestellt.

Führen Sie die Maus auf sie, um den Namen der Station zu sehen.

Darauf klicken, um die Beobachtung von Wetterbeobachtungen und Prognosen zu sehen.

Um die Karte zu ändern : klicken Sie auf den grünen Tasten mit einem schwarzen Kreuz Zum Vergrößern, auf den grünen Button mit einem Gedankenstrich zu verkleinern, oder auf die grünen Pfeile für benachbarte Karten.


METAR-TAF: